Historyczne dane pomiarowe

Dodano dane terminowe – wersja testowa.

Dane z okresu 1951-2019

Wersja bazy: 1.34 [2019-03-16, lista zmian], aktualizacja planowana na 2019-04-15

Dane meteo z obszaru Polski uzyskane na podstawie danych udostępnionych przez Instytut Meteorologii i Gospodarki Wodnej – Państwowy Instytut Badawczy.

 

Wybierz Datę:    

       

TemperaturaWilgotnośćWiatrCiśnienieOpadyŚniegCzas trwania zjawisk
 Stacja t tx tn tng RH VA  wxwx mslp ppp RRR   cm mm wxwxwxwxwxwxwx
1987-08-14 12.8 22.4 5.5- 72.0- 5.3 1.0---- 0.0------------
1987-08-13 11.4 19.0 6.6- 75.3- 3.7 0.7---- 0.0------------
1987-08-12 11.3 18.8 5.1- 77.8- 2.7 1.0---- 0.0------------
1987-08-11 13.0 17.6 9.9- 78.0- 6.7 0.3---- 0.4------------
1987-08-10 14.4 19.4 13.0- 85.8- 6.7 0.7---- 5.3------------
1987-08-09 14.5 24.0 5.1- 69.0- 4.0 0.7---- 0.2------------
1987-08-08 12.6 20.0 7.8- 71.5- 2.3 0.7---- 0.0------------
1987-08-07 11.2 17.0 4.6- 68.8- 3.7 0.7---- 0.1------------
1987-08-06 11.5 15.6 9.6- 71.8- 5.0 0.0---- 0.8------------
1987-08-05 12.0 17.0 9.0- 79.0- 8.0 0.3---- 4.6------------
1987-08-04 13.0 18.0 9.4- 88.5- 7.3 0.0---- 8.0------------
1987-08-03 15.7 22.7 10.6- 74.0- 4.0 0.3---- 0.0------------
1987-08-02 14.9 20.2 9.0- 71.0- 3.7 0.3---- 1.8------------
1987-08-01 15.0 24.2 9.0- 74.8- 5.7 0.3---- 1.3------------
1987-07-31 15.2 21.8 12.3- 85.3- 8.0 0.0---- 4.4------------
1987-07-30 17.4 24.4 11.0- 69.0- 1.7 1.3---- 0.3------------
1987-07-29 13.3 19.8 9.8- 76.0- 4.3 0.0---- 0.0------------
1987-07-28 14.9 17.8 12.3- 70.0- 8.0 0.0---- 2.7------------
1987-07-27 13.0 19.4 8.8- 68.8- 5.3 0.3---- 0.2------------
1987-07-26 13.7 21.0 11.0- 94.3- 8.0 0.7---- 9.6------------
1987-07-25 18.7 25.8 15.4- 84.5- 8.0 0.0---- 0.6------------
1987-07-24 20.5 30.2 15.8- 80.0- 3.3 0.7---- 11.4------------
1987-07-23 21.0 29.0 15.5- 73.3- 5.7 0.0---- 4.0------------
1987-07-22 19.6 26.8 14.6- 78.8- 6.0 0.7---- 1.0------------
1987-07-21 21.4 29.0 13.8- 72.5- 1.3 0.7---- 0.0------------
1987-07-20 22.6 28.0 17.8- 75.0- 4.7 0.7---- 0.0------------
1987-07-19 23.2 32.8 16.0- 73.3- 2.7 0.3---- 1.1------------
1987-07-18 22.8 31.0 14.8- 71.0- 1.7 0.3---- 0.0------------
1987-07-17 21.4 28.8 14.2- 70.0- 6.0 1.3---- 0.0------------
1987-07-16 19.1 28.0 11.6- 76.0- 5.0 0.7---- 0.0------------
1987-07-15 16.1 25.0 8.0- 72.0- 0.0 0.0---- 0.0------------
1987-07-14 16.6 21.8 12.5- 65.8- 3.0 1.3---- 0.0------------
1987-07-13 19.0 24.4 15.8- 75.8- 7.3 0.7---- 0.0------------
1987-07-12 19.9 31.0 10.3- 66.3- 2.7 0.7---- 11.4------------
1987-07-11 15.8 25.8 7.1- 70.5- 1.7 0.3---- 0.0------------
1987-07-10 15.4 20.0 11.0- 69.3- 0.7 0.3---- 0.0------------
1987-07-09 15.8 25.8 12.5- 89.8- 6.3 0.0---- 9.9------------
1987-07-08 20.1 30.0 10.0- 53.8- 0.0 0.7---- 0.0------------
1987-07-07 16.8 27.4 7.1- 58.3- 0.0 0.0---- 0.0------------
1987-07-06 15.5 22.4 9.6- 68.8- 0.7 0.7---- 0.0------------
1987-07-05 14.9 20.0 12.0- 78.8- 6.7 0.3---- 3.8------------
1987-07-04 18.6 23.4 14.5- 74.0- 8.0 0.7---- 1.8------------
1987-07-03 18.6 22.0 16.6- 75.0- 8.0 0.3---- 0.0------------
1987-07-02 20.2 25.7 17.0- 84.5- 6.3 1.0---- 0.0------------
1987-07-01 23.2 31.0 16.0- 73.8- 1.3 0.7---- 0.0------------
1987-06-30 21.6 31.0 14.0- 69.3- 2.3 0.3---- 0.0------------
1987-06-29 20.1 25.4 15.5- 77.5- 2.0 0.7---- 0.0------------
1987-06-28 19.3 25.0 15.0- 72.5- 4.0 0.0---- 0.7------------
1987-06-27 17.1 25.0 13.0- 85.0- 6.7 0.7---- 11.1------------
1987-06-26 15.5 23.4 6.1- 67.8- 1.3 1.0---- 0.3------------
1987-06-25 14.5 19.0 13.5- 78.5- 5.0 0.7---- 0.4------------
1987-06-24 16.4 20.2 11.6- 72.3- 6.7 0.3---- 1.7------------
1987-06-23 16.2 20.0 13.8- 76.8- 7.3 0.3---- 0.4------------
1987-06-22 15.6 22.0 11.0- 76.8- 6.7 1.0---- 0.0------------
1987-06-21 16.0 23.2 8.0- 70.3- 3.0 0.3---- 0.0------------
1987-06-20 13.5 22.0 4.3- 66.0- 1.7 0.7---- 0.0------------
1987-06-19 12.2 17.8 7.1- 67.8- 6.0 0.3---- 0.0------------
1987-06-18 10.6 16.5 5.3- 84.0- 3.7 0.0---- 5.3------------
1987-06-17 11.1 15.0 10.0- 72.3- 8.0 0.3---- 0.0------------
1987-06-16 15.3 22.6 12.7- 69.8- 8.0 2.3---- 0.0------------
448.5 ms

 

Źródłem pochodzenia danych jest Instytut Meteorologii i Gospodarki Wodnej – Państwowy Instytut Badawczy. Dane Instytutu Meteorologii i Gospodarki Wodnej – Państwowego Instytutu Badawczego zostały przetworzone.

Dane źródłowe można odnaleźć na stronie https://dane.imgw.pl